Aérodrome :
LOGIN :

S'inscrire | Disclaimer

   EN    FR    IT 

 










Légende :    VFR   VFR Marginal   IFR   IFR Intensif   IFR Très Intensif
Visi : 
Plafond : 
>= 8 km
>= 3000ft
5 à 8 km
1000 à 3000 ft
1500m à 5 km
500 à 1000 ft
800 à 1500m
200 à 500 ft
< 800m
< 200 ft
Symboles :   Orages  Brouillard  Fortes neiges  Fortes précipitations  Vent > 20 kt
SIGMETs :   Divers  Orages  Givrage  Turbulence  Onde Orograph.  Cendres Volcan.






- Altitude de l'aérodrome : 202 ft
- Code IATA : LGW


EGKK - London Gatwick

DERNIER METAR :
  • 210320Z 25001KT 6000 NSC 04/03 Q1018

METARs EXPIRÉS :
  • 210250Z 31001KT 6000 NSC 05/03 Q1018
  • 210220Z 23001KT 6000 NSC 05/03 Q1018
  • 210150Z 00000KT 6000 NSC 05/03 Q1018
  • 210120Z 27001KT 6000 NSC 05/03 Q1018
  • 210050Z 08002KT 6000 NSC 06/04 Q1018

TAF TAF EGKK
Valide du 21 à 00h jusqu'au 22 à 06h UTC


202312Z 2100/2206 VRB03KT 6000 FEW045
TEMPO 2100/2108 3000 BR
PROB30 2102/2107 0300 FG BKN001
BECMG 2108/2111 06012KT 9999



MET'MAP, la Météo Aéronautique d'un coup d'oeil ! - Copyright ORBIFLY Décembre 2007 - Disclaimer

ORBIFLY MET'MAP TEAM :

Programmation & Développement : Alexandra Zaïnal
Sur une idée originale de : Baudouin d'Aumeries
Assistance à la programmation : Marc-Olivier Méhu
Soutien technique & logistique : Manuel Goepfert

Contact : metmap@orbifly.com




SOURCES & CREDITS :

   NOAA